createdAt,value
2017-11-08T00:00:46.740Z,1015.91
2017-11-08T00:01:46.754Z,1015.96
2017-11-08T00:02:46.776Z,1015.91
2017-11-08T00:03:46.792Z,1015.94
2017-11-08T00:05:46.829Z,1015.95
2017-11-08T00:06:46.846Z,1015.93
2017-11-08T00:07:46.864Z,1015.96
2017-11-08T00:08:46.885Z,1015.97
2017-11-08T00:09:46.901Z,1015.97
2017-11-08T00:10:46.917Z,1015.96
2017-11-08T00:11:46.935Z,1015.96
2017-11-08T00:12:46.957Z,1015.94
2017-11-08T00:13:46.975Z,1015.93
2017-11-08T00:14:46.993Z,1015.95
2017-11-08T00:15:47.008Z,1015.95
2017-11-08T00:16:47.030Z,1015.91
2017-11-08T00:17:47.044Z,1015.85
2017-11-08T00:18:47.062Z,1015.89
2017-11-08T00:19:47.083Z,1015.85
2017-11-08T00:21:47.119Z,1015.85
2017-11-08T00:22:47.138Z,1015.83
2017-11-08T00:23:47.152Z,1015.84
2017-11-08T00:24:47.170Z,1015.9
2017-11-08T00:25:47.189Z,1015.86
2017-11-08T00:26:47.210Z,1015.85
2017-11-08T00:27:47.226Z,1015.85
2017-11-08T00:28:47.246Z,1015.85
2017-11-08T00:29:47.265Z,1015.82
2017-11-08T00:30:47.278Z,1015.84
2017-11-08T00:31:47.301Z,1015.83
2017-11-08T00:32:47.319Z,1015.87
2017-11-08T00:33:47.334Z,1015.94
2017-11-08T00:34:47.365Z,1015.94
2017-11-08T00:35:47.372Z,1015.97
2017-11-08T00:37:47.406Z,1015.96
2017-11-08T00:38:47.434Z,1015.88
2017-11-08T00:39:47.447Z,1015.97
2017-11-08T00:40:47.461Z,1015.9
2017-11-08T00:41:47.482Z,1015.93
2017-11-08T00:42:47.498Z,1015.93
2017-11-08T00:43:47.516Z,1015.87
2017-11-08T00:44:47.534Z,1015.88
2017-11-08T00:45:47.554Z,1015.9
2017-11-08T00:46:47.573Z,1015.87
2017-11-08T00:47:47.620Z,1015.89
2017-11-08T00:48:47.610Z,1015.88
2017-11-08T00:49:47.625Z,1015.76
2017-11-08T00:50:47.646Z,1015.77
2017-11-08T00:52:47.681Z,1015.74
2017-11-08T00:53:47.700Z,1015.69
2017-11-08T00:54:47.719Z,1015.7
2017-11-08T00:55:47.734Z,1015.69
2017-11-08T00:56:47.752Z,1015.68
2017-11-08T00:57:47.770Z,1015.68
2017-11-08T00:58:47.789Z,1015.67
2017-11-08T00:59:47.810Z,1015.64
2017-11-08T01:00:47.828Z,1015.61
2017-11-08T01:01:47.843Z,1015.59
2017-11-08T01:02:47.864Z,1015.56
2017-11-08T01:03:47.883Z,1015.57
2017-11-08T01:04:47.900Z,1015.56
2017-11-08T01:05:47.915Z,1015.58
2017-11-08T01:06:47.932Z,1015.53
2017-11-08T01:07:47.955Z,1015.58
2017-11-08T01:08:47.978Z,1015.59
2017-11-08T01:09:47.990Z,1015.57
2017-11-08T01:10:48.013Z,1015.52
2017-11-08T01:11:48.025Z,1015.54
2017-11-08T01:12:48.044Z,1015.5
2017-11-08T01:13:48.061Z,1015.51
2017-11-08T01:14:48.086Z,1015.53
2017-11-08T01:15:48.098Z,1015.51
2017-11-08T01:16:48.115Z,1015.46
2017-11-08T01:17:48.134Z,1015.56
2017-11-08T01:18:48.150Z,1015.53
2017-11-08T01:19:48.173Z,1015.5
2017-11-08T01:20:48.189Z,1015.5
2017-11-08T01:21:48.202Z,1015.5
2017-11-08T01:22:48.220Z,1015.49
2017-11-08T01:24:48.256Z,1015.44
2017-11-08T01:25:48.283Z,1015.48
2017-11-08T01:26:48.295Z,1015.5
2017-11-08T01:27:48.310Z,1015.51
2017-11-08T01:28:48.333Z,1015.46
2017-11-08T01:29:48.350Z,1015.44
2017-11-08T01:30:48.363Z,1015.41
2017-11-08T01:31:48.383Z,1015.39
2017-11-08T01:32:48.399Z,1015.4
2017-11-08T01:33:48.415Z,1015.38
2017-11-08T01:34:48.434Z,1015.41
2017-11-08T01:35:48.458Z,1015.35
2017-11-08T01:36:48.473Z,1015.35
2017-11-08T01:37:48.488Z,1015.3
2017-11-08T01:38:48.505Z,1015.34
2017-11-08T01:40:48.541Z,1015.36
2017-11-08T01:41:48.557Z,1015.32
2017-11-08T01:42:48.577Z,1015.31
2017-11-08T01:43:48.593Z,1015.32
2017-11-08T01:44:48.613Z,1015.3
2017-11-08T01:45:48.629Z,1015.29
2017-11-08T01:46:49.001Z,1015.31
2017-11-08T01:47:48.668Z,1015.28
2017-11-08T01:48:48.685Z,1015.33
2017-11-08T01:49:48.700Z,1015.33
2017-11-08T01:50:48.721Z,1015.36
2017-11-08T01:51:48.739Z,1015.27
2017-11-08T01:52:48.753Z,1015.29
2017-11-08T01:53:48.774Z,1015.27
2017-11-08T01:54:48.789Z,1015.2
2017-11-08T01:56:48.827Z,1015.16
2017-11-08T01:57:48.844Z,1015.2
2017-11-08T01:58:48.862Z,1015.15
2017-11-08T01:59:48.877Z,1015.15
2017-11-08T02:00:48.894Z,1015.19
2017-11-08T02:01:48.915Z,1015.18
2017-11-08T02:02:48.933Z,1015.22
2017-11-08T02:03:48.947Z,1015.23
2017-11-08T02:04:48.966Z,1015.25
2017-11-08T02:05:48.982Z,1015.2
2017-11-08T02:06:48.999Z,1015.19
2017-11-08T02:07:49.016Z,1015.13
2017-11-08T02:08:49.034Z,1015.13
2017-11-08T02:09:49.055Z,1015.15
2017-11-08T02:10:49.073Z,1015.15
2017-11-08T02:12:49.105Z,1015.13
2017-11-08T02:13:49.131Z,1015.09
2017-11-08T02:14:49.141Z,1015.07
2017-11-08T02:15:49.156Z,1015.05
2017-11-08T02:16:49.178Z,1015.08
2017-11-08T02:17:49.195Z,1015.04
2017-11-08T02:18:49.213Z,1015.06
2017-11-08T02:19:49.229Z,1015
2017-11-08T02:20:49.251Z,1015.02
2017-11-08T02:21:49.262Z,1014.94
2017-11-08T02:22:49.283Z,1014.91
2017-11-08T02:23:49.298Z,1014.93
2017-11-08T02:24:49.316Z,1014.89
2017-11-08T02:25:49.332Z,1014.87
2017-11-08T02:27:49.369Z,1014.93
2017-11-08T02:28:49.388Z,1014.91
2017-11-08T02:29:49.402Z,1014.98
2017-11-08T02:30:49.425Z,1014.95
2017-11-08T02:31:49.438Z,1014.98
2017-11-08T02:32:49.458Z,1014.93
2017-11-08T02:33:49.473Z,1014.96
2017-11-08T02:34:49.493Z,1014.94
2017-11-08T02:35:49.510Z,1014.97
2017-11-08T02:36:49.524Z,1015
2017-11-08T02:37:49.546Z,1015.03
2017-11-08T02:38:49.563Z,1015.06
2017-11-08T02:39:49.577Z,1015.04
2017-11-08T02:40:49.597Z,1015.08
2017-11-08T02:41:49.612Z,1015.1
2017-11-08T02:42:49.633Z,1015.08
2017-11-08T02:43:49.646Z,1015.06
2017-11-08T02:44:49.665Z,1015.05
2017-11-08T02:45:49.684Z,1015.05
2017-11-08T02:46:49.705Z,1015.1
2017-11-08T02:47:49.719Z,1015.04
2017-11-08T02:48:49.735Z,1015.07
2017-11-08T02:49:49.752Z,1015.04
2017-11-08T02:50:49.774Z,1015.01
2017-11-08T02:51:49.788Z,1014.97
2017-11-08T02:52:49.804Z,1014.93
2017-11-08T02:53:49.825Z,1014.92
2017-11-08T02:54:49.837Z,1014.91
2017-11-08T02:55:49.863Z,1014.95
2017-11-08T02:56:49.876Z,1014.96
2017-11-08T02:57:49.888Z,1014.94
2017-11-08T02:59:49.928Z,1014.91
2017-11-08T03:00:49.946Z,1014.91
2017-11-08T03:01:49.960Z,1014.93
2017-11-08T03:02:49.976Z,1014.9
2017-11-08T03:03:49.993Z,1014.91
2017-11-08T03:04:50.014Z,1014.91
2017-11-08T03:05:50.028Z,1014.94
2017-11-08T03:06:50.045Z,1014.89
2017-11-08T03:07:50.069Z,1014.89
2017-11-08T03:08:50.084Z,1014.87
2017-11-08T03:09:50.098Z,1014.89
2017-11-08T03:10:50.118Z,1014.94
2017-11-08T03:11:50.137Z,1014.93
2017-11-08T03:12:50.149Z,1014.94
2017-11-08T03:13:50.166Z,1014.95
2017-11-08T03:15:50.202Z,1014.99
2017-11-08T03:16:50.218Z,1014.97
2017-11-08T03:17:50.239Z,1014.94
2017-11-08T03:18:50.256Z,1014.98
2017-11-08T03:19:50.270Z,1014.95
2017-11-08T03:20:50.291Z,1014.98
2017-11-08T03:21:50.308Z,1014.98
2017-11-08T03:22:50.325Z,1014.93
2017-11-08T03:23:50.343Z,1014.92
2017-11-08T03:24:50.356Z,1014.92
2017-11-08T03:25:50.396Z,1014.99
2017-11-08T03:26:50.392Z,1015.01
2017-11-08T03:27:50.410Z,1015.02
2017-11-08T03:28:50.444Z,1015.05
2017-11-08T03:29:50.444Z,1015.07
2017-11-08T03:31:50.482Z,1015.1
2017-11-08T03:32:50.498Z,1015.08
2017-11-08T03:33:50.514Z,1015.1
2017-11-08T03:34:50.532Z,1015.09
2017-11-08T03:35:50.548Z,1015.1
2017-11-08T03:36:50.568Z,1015.14
2017-11-08T03:37:50.584Z,1015.1
2017-11-08T03:38:50.602Z,1015.09
2017-11-08T03:39:50.616Z,1015.12
2017-11-08T03:40:50.634Z,1015.09
2017-11-08T03:41:50.651Z,1015.1
2017-11-08T03:42:50.669Z,1015.09
2017-11-08T03:43:50.689Z,1015.11
2017-11-08T03:44:50.708Z,1015.13
2017-11-08T03:45:50.724Z,1015.13
2017-11-08T03:47:50.760Z,1015.18
2017-11-08T03:48:50.775Z,1015.19
2017-11-08T03:49:50.794Z,1015.14
2017-11-08T03:50:50.812Z,1015.12
2017-11-08T03:51:50.827Z,1015.1
2017-11-08T03:52:50.844Z,1015.15
2017-11-08T03:53:50.862Z,1015.16
2017-11-08T03:54:50.888Z,1015.17
2017-11-08T03:55:50.897Z,1015.18
2017-11-08T03:56:50.917Z,1015.22
2017-11-08T03:57:50.930Z,1015.22
2017-11-08T03:58:50.954Z,1015.23
2017-11-08T03:59:50.971Z,1015.2
2017-11-08T04:00:50.985Z,1015.21
2017-11-08T04:02:51.021Z,1015.22
2017-11-08T04:03:51.041Z,1015.22
2017-11-08T04:04:51.058Z,1015.21
2017-11-08T04:05:51.072Z,1015.19
2017-11-08T04:06:51.095Z,1015.24
2017-11-08T04:07:51.110Z,1015.23
2017-11-08T04:08:51.130Z,1015.23
2017-11-08T04:09:51.147Z,1015.17
2017-11-08T04:10:51.161Z,1015.2
2017-11-08T04:11:51.182Z,1015.17
2017-11-08T04:12:51.200Z,1015.15
2017-11-08T04:13:51.217Z,1015.16
2017-11-08T04:14:51.230Z,1015.13
2017-11-08T04:15:51.248Z,1015.16
2017-11-08T04:16:51.270Z,1015.22
2017-11-08T04:17:51.288Z,1015.25
2017-11-08T04:18:51.301Z,1015.19
2017-11-08T04:19:51.320Z,1015.21
2017-11-08T04:20:51.342Z,1015.19
2017-11-08T04:21:51.357Z,1015.19
2017-11-08T04:22:51.374Z,1015.22
2017-11-08T04:23:51.392Z,1015.19
2017-11-08T04:24:51.410Z,1015.17
2017-11-08T04:25:51.431Z,1015.21
2017-11-08T04:26:51.446Z,1015.18
2017-11-08T04:27:51.463Z,1015.18
2017-11-08T04:28:51.478Z,1015.2
2017-11-08T04:29:51.495Z,1015.15
2017-11-08T04:30:51.517Z,1015.15
2017-11-08T04:31:51.532Z,1015.19
2017-11-08T04:32:51.552Z,1015.14
2017-11-08T04:34:51.584Z,1015.16
2017-11-08T04:35:51.606Z,1015.17
2017-11-08T04:36:51.622Z,1015.19
2017-11-08T04:37:51.637Z,1015.17
2017-11-08T04:38:51.657Z,1015.24
2017-11-08T04:39:51.674Z,1015.24
2017-11-08T04:40:51.690Z,1015.2
2017-11-08T04:41:51.709Z,1015.2
2017-11-08T04:42:51.730Z,1015.24
2017-11-08T04:43:51.747Z,1015.26
2017-11-08T04:44:51.761Z,1015.25
2017-11-08T04:45:51.787Z,1015.26
2017-11-08T04:46:51.797Z,1015.24
2017-11-08T04:47:51.815Z,1015.22
2017-11-08T04:48:51.838Z,1015.26
2017-11-08T04:50:51.870Z,1015.29
2017-11-08T04:51:51.888Z,1015.27
2017-11-08T04:52:51.907Z,1015.3
2017-11-08T04:53:51.924Z,1015.32
2017-11-08T04:54:51.938Z,1015.32
2017-11-08T04:55:51.957Z,1015.22
2017-11-08T04:56:51.975Z,1015.26
2017-11-08T04:57:51.993Z,1015.21
2017-11-08T04:58:52.010Z,1015.2
2017-11-08T04:59:52.029Z,1015.17
2017-11-08T05:00:52.049Z,1015.27
2017-11-08T05:01:52.064Z,1015.25
2017-11-08T05:02:52.084Z,1015.24
2017-11-08T05:03:52.107Z,1015.2
2017-11-08T05:04:52.118Z,1015.19
2017-11-08T05:06:52.155Z,1015.23
2017-11-08T05:07:52.171Z,1015.21
2017-11-08T05:08:52.188Z,1015.21
2017-11-08T05:09:52.210Z,1015.21
2017-11-08T05:10:52.223Z,1015.23
2017-11-08T05:11:52.246Z,1015.27
2017-11-08T05:12:52.259Z,1015.25
2017-11-08T05:13:52.276Z,1015.25
2017-11-08T05:14:52.297Z,1015.29
2017-11-08T05:15:52.312Z,1015.29
2017-11-08T05:16:52.330Z,1015.31
2017-11-08T05:17:52.350Z,1015.34
2017-11-08T05:18:52.367Z,1015.37
2017-11-08T05:19:52.385Z,1015.35
2017-11-08T05:20:52.404Z,1015.32
2017-11-08T05:22:52.440Z,1015.27
2017-11-08T05:23:52.460Z,1015.27
2017-11-08T05:24:52.472Z,1015.3
2017-11-08T05:25:52.494Z,1015.29
2017-11-08T05:26:52.509Z,1015.31
2017-11-08T05:27:52.528Z,1015.33
2017-11-08T05:28:52.547Z,1015.32
2017-11-08T05:29:52.565Z,1015.29
2017-11-08T05:30:52.583Z,1015.3
2017-11-08T05:31:52.604Z,1015.33
2017-11-08T05:32:52.618Z,1015.32
2017-11-08T05:33:52.637Z,1015.36
2017-11-08T05:34:52.651Z,1015.3
2017-11-08T05:35:52.672Z,1015.31
2017-11-08T05:37:52.709Z,1015.32
2017-11-08T05:38:52.727Z,1015.33
2017-11-08T05:39:52.744Z,1015.36
2017-11-08T05:40:52.763Z,1015.3
2017-11-08T05:41:52.781Z,1015.31
2017-11-08T05:42:52.797Z,1015.32
2017-11-08T05:43:52.813Z,1015.37
2017-11-08T05:44:52.834Z,1015.35
2017-11-08T05:45:52.851Z,1015.38
2017-11-08T05:46:52.865Z,1015.37
2017-11-08T05:47:52.882Z,1015.41
2017-11-08T05:48:52.904Z,1015.48
2017-11-08T05:49:52.920Z,1015.49
2017-11-08T05:50:52.937Z,1015.57
2017-11-08T05:51:52.954Z,1015.51
2017-11-08T05:52:52.978Z,1015.6
2017-11-08T05:53:52.988Z,1015.6
2017-11-08T05:54:53.007Z,1015.61
2017-11-08T05:55:53.029Z,1015.61
2017-11-08T05:56:53.041Z,1015.6
2017-11-08T05:57:53.060Z,1015.61
2017-11-08T05:58:53.079Z,1015.63
2017-11-08T05:59:53.094Z,1015.66
2017-11-08T06:00:53.113Z,1015.7
2017-11-08T06:01:53.131Z,1015.64
2017-11-08T06:02:53.148Z,1015.65
2017-11-08T06:03:53.168Z,1015.71
2017-11-08T06:04:53.186Z,1015.69
2017-11-08T06:05:53.202Z,1015.67
2017-11-08T06:06:53.218Z,1015.71
2017-11-08T06:07:53.237Z,1015.67
2017-11-08T06:09:53.274Z,1015.69
2017-11-08T06:10:53.289Z,1015.72
2017-11-08T06:11:53.306Z,1015.74
2017-11-08T06:12:53.324Z,1015.76
2017-11-08T06:13:53.340Z,1015.79
2017-11-08T06:14:53.362Z,1015.83
2017-11-08T06:15:53.375Z,1015.83
2017-11-08T06:16:53.401Z,1015.88
2017-11-08T06:17:53.411Z,1015.87
2017-11-08T06:18:53.427Z,1015.83
2017-11-08T06:19:53.445Z,1015.83
2017-11-08T06:20:53.463Z,1015.81
2017-11-08T06:21:53.485Z,1015.83
2017-11-08T06:22:53.502Z,1015.8
2017-11-08T06:23:53.516Z,1015.84
2017-11-08T06:25:53.559Z,1015.79
2017-11-08T06:26:53.572Z,1015.81
2017-11-08T06:27:53.586Z,1015.77
2017-11-08T06:28:53.606Z,1015.76
2017-11-08T06:29:53.623Z,1015.8
2017-11-08T06:30:53.638Z,1015.83
2017-11-08T06:31:53.655Z,1015.83
2017-11-08T06:32:53.673Z,1015.84
2017-11-08T06:33:53.690Z,1015.83
2017-11-08T06:34:53.715Z,1015.79
2017-11-08T06:35:53.729Z,1015.83
2017-11-08T06:36:53.743Z,1015.79
2017-11-08T06:37:53.761Z,1015.84
2017-11-08T06:38:53.779Z,1015.86
2017-11-08T06:39:53.799Z,1015.83
2017-11-08T06:41:53.834Z,1015.87
2017-11-08T06:42:53.853Z,1015.9
2017-11-08T06:43:53.869Z,1015.93
2017-11-08T06:44:53.886Z,1015.9
2017-11-08T06:45:53.899Z,1015.9
2017-11-08T06:46:53.920Z,1015.93
2017-11-08T06:47:53.938Z,1015.92
2017-11-08T06:48:53.964Z,1015.94
2017-11-08T06:49:53.975Z,1015.93
2017-11-08T06:50:53.988Z,1015.95
2017-11-08T06:51:54.009Z,1015.92
2017-11-08T06:52:54.030Z,1015.91
2017-11-08T06:53:54.039Z,1015.91
2017-11-08T06:54:54.056Z,1015.95
2017-11-08T06:55:54.074Z,1015.95
2017-11-08T06:57:54.116Z,1015.98
2017-11-08T06:58:54.131Z,1016.03
2017-11-08T06:59:54.148Z,1016.04
2017-11-08T07:00:54.164Z,1016.04
2017-11-08T07:01:54.181Z,1016.08
2017-11-08T07:02:54.197Z,1016.15
2017-11-08T07:03:54.217Z,1016.16
2017-11-08T07:04:54.233Z,1016.19
2017-11-08T07:05:54.251Z,1016.25
2017-11-08T07:06:54.274Z,1016.26
2017-11-08T07:07:54.288Z,1016.21
2017-11-08T07:08:54.306Z,1016.25
2017-11-08T07:09:54.321Z,1016.28
2017-11-08T07:10:54.339Z,1016.28
2017-11-08T07:12:54.378Z,1016.24
2017-11-08T07:13:54.399Z,1016.25
2017-11-08T07:14:54.410Z,1016.17
2017-11-08T07:15:54.430Z,1016.19
2017-11-08T07:16:54.448Z,1016.18
2017-11-08T07:17:54.471Z,1016.23
2017-11-08T07:18:54.483Z,1016.21
2017-11-08T07:19:54.500Z,1016.26
2017-11-08T07:20:54.522Z,1016.25
2017-11-08T07:21:54.536Z,1016.28
2017-11-08T07:22:54.558Z,1016.24
2017-11-08T07:23:54.574Z,1016.28
2017-11-08T07:24:54.594Z,1016.26
2017-11-08T07:25:54.611Z,1016.21
2017-11-08T07:26:54.632Z,1016.16
2017-11-08T07:27:54.650Z,1016.11
2017-11-08T07:28:54.668Z,1016.11
2017-11-08T07:29:54.685Z,1016.17
2017-11-08T07:30:54.704Z,1016.11
2017-11-08T07:31:54.724Z,1016.14
2017-11-08T07:32:54.739Z,1016.13
2017-11-08T07:33:54.763Z,1016.14
2017-11-08T07:34:54.776Z,1016.14
2017-11-08T07:35:54.795Z,1016.12
2017-11-08T07:36:54.812Z,1016.1
2017-11-08T07:37:54.834Z,1016.14
2017-11-08T07:38:54.854Z,1016.12
2017-11-08T07:39:54.873Z,1016.14
2017-11-08T07:40:54.889Z,1016.07
2017-11-08T07:41:54.911Z,1016.06
2017-11-08T07:42:54.928Z,1016.02
2017-11-08T07:44:54.964Z,1016
2017-11-08T07:45:54.986Z,1016.01
2017-11-08T07:46:55.000Z,1015.92
2017-11-08T07:47:55.023Z,1015.98
2017-11-08T07:48:55.041Z,1015.99
2017-11-08T07:49:55.061Z,1016.03
2017-11-08T07:50:55.077Z,1016
2017-11-08T07:51:55.100Z,1016.04
2017-11-08T07:52:55.114Z,1016.02
2017-11-08T07:53:55.131Z,1016.01
2017-11-08T07:54:55.156Z,1016.03
2017-11-08T07:55:55.174Z,1016.01
2017-11-08T07:56:55.191Z,1016.03
2017-11-08T07:57:55.208Z,1015.99
2017-11-08T07:58:55.230Z,1015.99
2017-11-08T08:00:55.277Z,1015.93
2017-11-08T08:01:55.284Z,1015.9
2017-11-08T08:02:55.305Z,1015.86
2017-11-08T08:03:55.321Z,1015.85
2017-11-08T08:04:55.343Z,1015.85
2017-11-08T08:05:55.364Z,1015.87
2017-11-08T08:06:55.379Z,1015.88
2017-11-08T08:07:55.398Z,1015.85
2017-11-08T08:08:55.415Z,1015.8
2017-11-08T08:09:55.442Z,1015.89
2017-11-08T08:10:55.455Z,1015.89
2017-11-08T08:11:55.476Z,1015.81
2017-11-08T08:12:55.492Z,1015.96
2017-11-08T08:13:55.514Z,1015.93
2017-11-08T08:14:55.533Z,1016.01
2017-11-08T08:16:55.571Z,1016.13
2017-11-08T08:17:55.594Z,1016.13
2017-11-08T08:18:55.612Z,1016.13
2017-11-08T08:19:55.625Z,1016.15
2017-11-08T08:20:55.650Z,1016.18
2017-11-08T08:21:55.666Z,1016.24
2017-11-08T08:22:55.687Z,1016.23
2017-11-08T08:23:55.705Z,1016.31
2017-11-08T08:24:55.724Z,1016.3
2017-11-08T08:25:55.742Z,1016.37
2017-11-08T08:26:55.774Z,1016.35
2017-11-08T08:27:55.776Z,1016.29
2017-11-08T08:28:55.796Z,1016.43
2017-11-08T08:29:55.818Z,1016.35
2017-11-08T08:30:55.835Z,1016.38
2017-11-08T08:32:55.876Z,1016.32
2017-11-08T08:33:55.898Z,1016.41
2017-11-08T08:34:55.914Z,1016.33
2017-11-08T08:35:55.929Z,1016.34
2017-11-08T08:36:55.953Z,1016.34
2017-11-08T08:37:55.968Z,1016.32
2017-11-08T08:38:55.989Z,1016.3
2017-11-08T08:39:56.007Z,1016.3
2017-11-08T08:40:56.025Z,1016.31
2017-11-08T08:41:56.045Z,1016.35
2017-11-08T08:42:56.063Z,1016.27
2017-11-08T08:43:56.084Z,1016.33
2017-11-08T08:44:56.102Z,1016.28
2017-11-08T08:45:56.122Z,1016.28
2017-11-08T08:47:56.164Z,1016.29
2017-11-08T08:48:56.179Z,1016.24
2017-11-08T08:49:56.199Z,1016.18
2017-11-08T08:50:56.218Z,1016.25
2017-11-08T08:51:56.240Z,1016.21
2017-11-08T08:52:56.257Z,1016.25
2017-11-08T08:53:56.276Z,1016.26
2017-11-08T08:54:56.299Z,1016.25
2017-11-08T08:55:56.318Z,1016.29
2017-11-08T08:56:56.337Z,1016.24
2017-11-08T08:57:56.354Z,1016.24
2017-11-08T08:58:56.371Z,1016.21
2017-11-08T08:59:56.392Z,1016.29
2017-11-08T09:00:56.412Z,1016.24
2017-11-08T09:01:56.431Z,1016.24
2017-11-08T09:02:56.447Z,1016.15
2017-11-08T09:03:56.465Z,1016.12
2017-11-08T09:04:56.491Z,1016.17
2017-11-08T09:05:56.508Z,1016.14
2017-11-08T09:06:56.523Z,1016.22
2017-11-08T09:07:56.543Z,1016.14
2017-11-08T09:08:56.567Z,1016.16
2017-11-08T09:09:56.584Z,1016.17
2017-11-08T09:10:56.610Z,1016.18
2017-11-08T09:11:56.620Z,1016.25
2017-11-08T09:12:56.641Z,1016.16
2017-11-08T09:13:56.655Z,1016.22
2017-11-08T09:14:56.676Z,1016.24
2017-11-08T09:15:56.696Z,1016.18
2017-11-08T09:16:56.723Z,1016.19
2017-11-08T09:17:56.734Z,1016.16
2017-11-08T09:19:56.773Z,1016.18
2017-11-08T09:20:56.791Z,1016.16
2017-11-08T09:21:56.809Z,1016.1
2017-11-08T09:22:56.824Z,1016.11
2017-11-08T09:23:56.845Z,1016
2017-11-08T09:24:56.866Z,1016.09
2017-11-08T09:25:56.880Z,1016.09
2017-11-08T09:26:56.901Z,1016.08
2017-11-08T09:27:56.920Z,1016.03
2017-11-08T09:28:56.944Z,1016.04
2017-11-08T09:29:56.960Z,1016.04
2017-11-08T09:30:56.983Z,1016.09
2017-11-08T09:31:56.998Z,1015.95
2017-11-08T09:32:57.014Z,1015.9
2017-11-08T09:33:57.033Z,1015.9
2017-11-08T09:35:57.072Z,1015.86
2017-11-08T09:36:57.091Z,1015.88
2017-11-08T09:37:57.110Z,1015.85
2017-11-08T09:38:57.135Z,1015.84
2017-11-08T09:39:57.148Z,1015.89
2017-11-08T09:40:57.171Z,1015.89
2017-11-08T09:41:57.186Z,1016.01
2017-11-08T09:42:57.212Z,1015.87
2017-11-08T09:43:57.227Z,1015.86
2017-11-08T09:44:57.247Z,1015.87
2017-11-08T09:45:57.266Z,1015.81
2017-11-08T09:46:57.283Z,1015.8
2017-11-08T09:47:57.301Z,1015.81
2017-11-08T09:48:57.320Z,1015.77
2017-11-08T09:49:57.344Z,1015.79
2017-11-08T09:51:57.402Z,1015.8
2017-11-08T09:52:57.398Z,1015.85
2017-11-08T09:53:57.418Z,1015.77
2017-11-08T09:54:57.442Z,1015.86
2017-11-08T09:55:57.456Z,1015.81
2017-11-08T09:56:57.476Z,1015.77
2017-11-08T09:57:57.499Z,1015.86
2017-11-08T09:58:57.517Z,1015.91
2017-11-08T09:59:57.533Z,1015.89
2017-11-08T10:00:57.556Z,1015.87
2017-11-08T10:01:57.575Z,1015.87
2017-11-08T10:02:57.597Z,1015.85
2017-11-08T10:03:57.615Z,1015.85
2017-11-08T10:04:57.632Z,1015.86
2017-11-08T10:05:57.654Z,1015.81
2017-11-08T10:07:57.717Z,1015.92
2017-11-08T10:08:57.741Z,1015.88
2017-11-08T10:09:57.869Z,1015.92
2017-11-08T10:10:57.751Z,1015.93
2017-11-08T10:11:57.781Z,1015.97
2017-11-08T10:12:57.819Z,1015.88
2017-11-08T10:13:57.825Z,1015.86
2017-11-08T10:14:57.825Z,1015.86
2017-11-08T10:15:57.848Z,1015.9
2017-11-08T10:16:57.871Z,1015.89
2017-11-08T10:17:57.888Z,1015.9
2017-11-08T10:18:57.906Z,1015.95
2017-11-08T10:19:57.926Z,1015.96
2017-11-08T10:20:57.943Z,1015.91
2017-11-08T10:22:57.982Z,1015.85
2017-11-08T10:23:58.003Z,1015.87
2017-11-08T10:24:58.370Z,1015.89
2017-11-08T10:25:58.043Z,1015.9
2017-11-08T10:26:58.062Z,1015.9
2017-11-08T10:27:58.082Z,1015.85
2017-11-08T10:28:58.099Z,1015.89
2017-11-08T10:29:58.121Z,1015.87
2017-11-08T10:30:58.136Z,1015.88
2017-11-08T10:31:58.156Z,1015.89
2017-11-08T10:32:58.179Z,1015.87
2017-11-08T10:33:58.196Z,1015.84
2017-11-08T10:34:58.222Z,1015.82
2017-11-08T10:35:58.236Z,1015.84
2017-11-08T10:36:58.256Z,1015.77
2017-11-08T10:37:58.275Z,1015.81
2017-11-08T10:38:58.292Z,1015.83
2017-11-08T10:39:58.310Z,1015.85
2017-11-08T10:40:58.331Z,1015.8
2017-11-08T10:41:58.350Z,1015.73
2017-11-08T10:42:58.343Z,1015.72
2017-11-08T10:43:58.358Z,1015.74
2017-11-08T10:44:58.375Z,1015.75
2017-11-08T10:45:58.393Z,1015.8
2017-11-08T10:46:58.433Z,1015.72
2017-11-08T10:47:58.433Z,1015.72
2017-11-08T10:48:58.450Z,1015.72
2017-11-08T10:49:58.470Z,1015.72
2017-11-08T10:50:58.493Z,1015.62
2017-11-08T10:51:58.512Z,1015.62
2017-11-08T10:52:58.526Z,1015.61
2017-11-08T10:54:58.569Z,1015.55
2017-11-08T10:55:58.588Z,1015.61
2017-11-08T10:56:58.603Z,1015.65
2017-11-08T10:57:58.627Z,1015.64
2017-11-08T10:58:58.654Z,1015.71
2017-11-08T10:59:58.662Z,1015.6
2017-11-08T11:00:58.686Z,1015.58
2017-11-08T11:01:58.702Z,1015.54
2017-11-08T11:02:58.732Z,1015.58
2017-11-08T11:03:58.744Z,1015.61
2017-11-08T11:04:58.761Z,1015.6
2017-11-08T11:05:58.780Z,1015.6
2017-11-08T11:06:58.804Z,1015.63
2017-11-08T11:07:58.823Z,1015.63
2017-11-08T11:08:58.844Z,1015.71
2017-11-08T11:10:58.881Z,1015.68
2017-11-08T11:11:58.900Z,1015.73
2017-11-08T11:12:58.919Z,1015.71
2017-11-08T11:13:58.941Z,1015.69
2017-11-08T11:14:58.968Z,1015.71
2017-11-08T11:15:58.986Z,1015.74
2017-11-08T11:16:59.000Z,1015.75
2017-11-08T11:17:59.021Z,1015.76
2017-11-08T11:18:59.037Z,1015.71
2017-11-08T11:19:59.056Z,1015.78
2017-11-08T11:20:59.077Z,1015.77
2017-11-08T11:21:59.103Z,1015.76
2017-11-08T11:22:59.115Z,1015.79
2017-11-08T11:23:59.138Z,1015.84
2017-11-08T11:24:59.158Z,1015.86
2017-11-08T11:26:59.196Z,1015.86
2017-11-08T11:27:59.218Z,1015.81
2017-11-08T11:28:59.236Z,1015.75
2017-11-08T11:29:59.256Z,1015.74
2017-11-08T11:30:59.278Z,1015.83
2017-11-08T11:31:59.295Z,1015.81
2017-11-08T11:32:59.315Z,1015.86
2017-11-08T11:33:59.338Z,1015.87
2017-11-08T11:34:59.358Z,1015.88
2017-11-08T11:35:59.374Z,1015.91
2017-11-08T11:36:59.397Z,1015.88
2017-11-08T11:37:59.414Z,1015.87
2017-11-08T11:38:59.432Z,1015.89
2017-11-08T11:39:59.455Z,1015.87
2017-11-08T11:40:59.475Z,1015.86
2017-11-08T11:42:59.515Z,1015.89
2017-11-08T11:43:59.531Z,1015.89
2017-11-08T11:44:59.550Z,1015.87
2017-11-08T11:45:59.572Z,1015.92
2017-11-08T11:46:59.589Z,1015.97
2017-11-08T11:47:59.611Z,1015.96
2017-11-08T11:48:59.627Z,1015.9
2017-11-08T11:49:59.650Z,1015.94
2017-11-08T11:50:59.669Z,1016
2017-11-08T11:51:59.688Z,1015.97
2017-11-08T11:52:59.709Z,1015.98
2017-11-08T11:53:59.727Z,1015.97
2017-11-08T11:54:59.747Z,1015.99
2017-11-08T11:55:59.773Z,1015.96
2017-11-08T11:57:59.806Z,1015.89
2017-11-08T11:58:59.829Z,1015.91
2017-11-08T11:59:59.847Z,1015.86
2017-11-08T12:00:59.865Z,1015.88
2017-11-08T12:01:59.887Z,1015.9
2017-11-08T12:02:59.903Z,1015.87
2017-11-08T12:03:59.928Z,1015.85
2017-11-08T12:04:59.943Z,1015.81
2017-11-08T12:05:59.964Z,1015.9
2017-11-08T12:06:59.989Z,1015.78
2017-11-08T12:08:00.006Z,1015.81
2017-11-08T12:09:00.024Z,1015.79
2017-11-08T12:10:00.041Z,1015.94
2017-11-08T12:11:00.064Z,1015.84
2017-11-08T12:12:00.079Z,1015.86
2017-11-08T12:13:00.099Z,1015.86
2017-11-08T12:14:00.126Z,1015.82
2017-11-08T12:15:00.146Z,1015.83
2017-11-08T12:16:00.158Z,1015.83
2017-11-08T12:17:00.177Z,1015.81
2017-11-08T12:18:00.196Z,1015.83
2017-11-08T12:19:00.216Z,1015.82
2017-11-08T12:20:00.239Z,1015.82
2017-11-08T12:21:00.264Z,1015.79
2017-11-08T12:22:00.273Z,1015.83
2017-11-08T12:23:00.297Z,1015.83
2017-11-08T12:24:00.314Z,1015.85
2017-11-08T12:25:00.335Z,1015.81
2017-11-08T12:26:00.356Z,1015.78
2017-11-08T12:27:00.377Z,1015.8
2017-11-08T12:28:00.397Z,1015.77
2017-11-08T12:30:00.429Z,1015.74
2017-11-08T12:31:00.458Z,1015.72
2017-11-08T12:32:00.472Z,1015.72
2017-11-08T12:33:00.492Z,1015.74
2017-11-08T12:34:00.508Z,1015.71
2017-11-08T12:35:00.530Z,1015.82
2017-11-08T12:36:00.549Z,1015.91
2017-11-08T12:37:00.569Z,1015.75
2017-11-08T12:38:00.588Z,1015.77
2017-11-08T12:39:00.607Z,1015.73
2017-11-08T12:40:00.627Z,1015.68
2017-11-08T12:41:00.647Z,1015.71
2017-11-08T12:42:00.662Z,1015.73
2017-11-08T12:43:00.683Z,1015.71
2017-11-08T12:44:00.704Z,1015.75
2017-11-08T12:46:00.741Z,1015.79
2017-11-08T12:47:00.763Z,1015.74
2017-11-08T12:48:00.780Z,1015.74
2017-11-08T12:49:00.801Z,1015.79
2017-11-08T12:50:00.818Z,1015.76